sensor_id;sensor_type;location;lat;lon;timestamp;temperature;humidity
702;DHT22;334;48.808;9.222;2022-12-10T00:00:23;6.20;1.00
702;DHT22;334;48.808;9.222;2022-12-10T00:01:27;6.20;1.00
702;DHT22;334;48.808;9.222;2022-12-10T00:02:29;6.20;1.00
702;DHT22;334;48.808;9.222;2022-12-10T00:03:31;6.20;1.00
702;DHT22;334;48.808;9.222;2022-12-10T00:04:34;6.20;1.00
702;DHT22;334;48.808;9.222;2022-12-10T00:05:36;5.90;1.00
702;DHT22;334;48.808;9.222;2022-12-10T00:06:39;6.20;1.00
702;DHT22;334;48.808;9.222;2022-12-10T00:07:43;6.20;1.00
702;DHT22;334;48.808;9.222;2022-12-10T00:08:45;6.20;1.00
702;DHT22;334;48.808;9.222;2022-12-10T00:09:47;6.20;1.00
702;DHT22;334;48.808;9.222;2022-12-10T00:10:49;6.20;1.00
702;DHT22;334;48.808;9.222;2022-12-10T00:11:52;6.20;1.00
702;DHT22;334;48.808;9.222;2022-12-10T00:12:54;6.20;1.00
702;DHT22;334;48.808;9.222;2022-12-10T00:13:56;6.20;1.00
702;DHT22;334;48.808;9.222;2022-12-10T00:14:58;6.20;1.00
702;DHT22;334;48.808;9.222;2022-12-10T00:16:02;6.20;1.00
702;DHT22;334;48.808;9.222;2022-12-10T00:17:05;6.20;1.00
702;DHT22;334;48.808;9.222;2022-12-10T00:18:16;6.20;1.00
702;DHT22;334;48.808;9.222;2022-12-10T00:19:18;6.20;1.00
702;DHT22;334;48.808;9.222;2022-12-10T00:20:22;6.20;1.00
702;DHT22;334;48.808;9.222;2022-12-10T00:21:27;6.20;1.00
702;DHT22;334;48.808;9.222;2022-12-10T00:22:29;6.20;1.00
702;DHT22;334;48.808;9.222;2022-12-10T00:23:31;6.20;1.00
702;DHT22;334;48.808;9.222;2022-12-10T00:24:33;6.20;1.00
702;DHT22;334;48.808;9.222;2022-12-10T00:25:35;6.20;1.00
702;DHT22;334;48.808;9.222;2022-12-10T00:26:38;6.30;1.00
702;DHT22;334;48.808;9.222;2022-12-10T00:27:40;6.20;1.00
702;DHT22;334;48.808;9.222;2022-12-10T00:28:44;6.20;1.00
702;DHT22;334;48.808;9.222;2022-12-10T00:29:46;6.20;1.00
702;DHT22;334;48.808;9.222;2022-12-10T00:30:48;6.20;1.00
702;DHT22;334;48.808;9.222;2022-12-10T00:31:50;6.20;1.00
702;DHT22;334;48.808;9.222;2022-12-10T00:32:52;6.20;1.00
702;DHT22;334;48.808;9.222;2022-12-10T00:33:56;6.10;1.00
702;DHT22;334;48.808;9.222;2022-12-10T00:34:58;6.10;1.00
702;DHT22;334;48.808;9.222;2022-12-10T00:36:21;6.10;1.00
702;DHT22;334;48.808;9.222;2022-12-10T00:37:23;6.10;1.00
702;DHT22;334;48.808;9.222;2022-12-10T00:38:25;6.10;1.00
702;DHT22;334;48.808;9.222;2022-12-10T00:39:27;6.10;1.00
702;DHT22;334;48.808;9.222;2022-12-10T00:40:30;6.10;1.00
702;DHT22;334;48.808;9.222;2022-12-10T00:41:31;6.10;1.00
702;DHT22;334;48.808;9.222;2022-12-10T00:42:34;6.20;1.00
702;DHT22;334;48.808;9.222;2022-12-10T00:43:37;6.10;1.00
702;DHT22;334;48.808;9.222;2022-12-10T00:44:39;6.00;1.00
702;DHT22;334;48.808;9.222;2022-12-10T00:45:41;6.00;1.00
702;DHT22;334;48.808;9.222;2022-12-10T00:46:43;6.10;1.00
702;DHT22;334;48.808;9.222;2022-12-10T00:47:45;6.00;1.00
702;DHT22;334;48.808;9.222;2022-12-10T00:48:48;6.10;1.00
702;DHT22;334;48.808;9.222;2022-12-10T00:49:50;6.10;1.00
702;DHT22;334;48.808;9.222;2022-12-10T00:52:04;6.10;1.00
702;DHT22;334;48.808;9.222;2022-12-10T00:53:06;6.10;1.00
702;DHT22;334;48.808;9.222;2022-12-10T00:54:11;6.10;1.00
702;DHT22;334;48.808;9.222;2022-12-10T00:55:15;6.00;1.00
702;DHT22;334;48.808;9.222;2022-12-10T00:56:22;6.00;1.00
702;DHT22;334;48.808;9.222;2022-12-10T00:57:24;6.00;1.00
702;DHT22;334;48.808;9.222;2022-12-10T00:58:29;6.00;1.00
702;DHT22;334;48.808;9.222;2022-12-10T00:59:32;6.00;1.00
702;DHT22;334;48.808;9.222;2022-12-10T01:00:34;6.00;1.00
702;DHT22;334;48.808;9.222;2022-12-10T01:01:38;6.00;1.00
702;DHT22;334;48.808;9.222;2022-12-10T01:02:41;6.20;1.00
702;DHT22;334;48.808;9.222;2022-12-10T01:03:45;6.00;1.00
702;DHT22;334;48.808;9.222;2022-12-10T01:04:52;6.00;1.00
702;DHT22;334;48.808;9.222;2022-12-10T01:05:54;6.00;1.00
702;DHT22;334;48.808;9.222;2022-12-10T01:06:56;6.00;1.00
702;DHT22;334;48.808;9.222;2022-12-10T01:07:58;6.00;1.00
702;DHT22;334;48.808;9.222;2022-12-10T01:09:05;6.00;1.00
702;DHT22;334;48.808;9.222;2022-12-10T01:10:08;6.00;1.00
702;DHT22;334;48.808;9.222;2022-12-10T01:11:12;6.00;1.00
702;DHT22;334;48.808;9.222;2022-12-10T01:12:15;6.00;1.00
702;DHT22;334;48.808;9.222;2022-12-10T01:13:18;6.00;1.00
702;DHT22;334;48.808;9.222;2022-12-10T01:14:26;6.00;1.00
702;DHT22;334;48.808;9.222;2022-12-10T01:15:29;6.00;1.00
702;DHT22;334;48.808;9.222;2022-12-10T01:16:31;6.00;1.00
702;DHT22;334;48.808;9.222;2022-12-10T01:17:34;6.00;1.00
702;DHT22;334;48.808;9.222;2022-12-10T01:18:36;6.00;1.00
702;DHT22;334;48.808;9.222;2022-12-10T01:19:39;6.00;1.00
702;DHT22;334;48.808;9.222;2022-12-10T01:20:41;6.00;1.00
702;DHT22;334;48.808;9.222;2022-12-10T01:21:42;6.00;1.00
702;DHT22;334;48.808;9.222;2022-12-10T01:22:44;6.00;1.00
702;DHT22;334;48.808;9.222;2022-12-10T01:23:48;6.20;1.00
702;DHT22;334;48.808;9.222;2022-12-10T01:24:51;6.00;1.00
702;DHT22;334;48.808;9.222;2022-12-10T01:25:53;6.00;1.00
702;DHT22;334;48.808;9.222;2022-12-10T01:26:55;6.00;1.00
702;DHT22;334;48.808;9.222;2022-12-10T01:27:57;6.00;1.00
702;DHT22;334;48.808;9.222;2022-12-10T01:28:59;6.00;1.00
702;DHT22;334;48.808;9.222;2022-12-10T01:30:01;6.00;1.00
702;DHT22;334;48.808;9.222;2022-12-10T01:31:09;6.20;1.00
702;DHT22;334;48.808;9.222;2022-12-10T01:32:12;6.00;1.00
702;DHT22;334;48.808;9.222;2022-12-10T01:33:14;6.00;1.00
702;DHT22;334;48.808;9.222;2022-12-10T01:34:16;6.00;1.00
702;DHT22;334;48.808;9.222;2022-12-10T01:35:18;6.00;1.00
702;DHT22;334;48.808;9.222;2022-12-10T01:36:23;6.00;1.00
702;DHT22;334;48.808;9.222;2022-12-10T01:37:25;6.00;1.00
702;DHT22;334;48.808;9.222;2022-12-10T01:38:28;6.00;1.00
702;DHT22;334;48.808;9.222;2022-12-10T01:39:30;6.00;1.00
702;DHT22;334;48.808;9.222;2022-12-10T01:40:37;6.00;1.00
702;DHT22;334;48.808;9.222;2022-12-10T01:41:50;6.00;1.00
702;DHT22;334;48.808;9.222;2022-12-10T01:42:54;6.00;1.00
702;DHT22;334;48.808;9.222;2022-12-10T01:45:12;6.00;1.00
702;DHT22;334;48.808;9.222;2022-12-10T01:46:14;6.00;1.00
702;DHT22;334;48.808;9.222;2022-12-10T01:47:18;6.00;1.00
702;DHT22;334;48.808;9.222;2022-12-10T01:48:20;6.00;1.00
702;DHT22;334;48.808;9.222;2022-12-10T01:49:26;5.90;1.00
702;DHT22;334;48.808;9.222;2022-12-10T01:50:28;5.90;1.00
702;DHT22;334;48.808;9.222;2022-12-10T01:51:32;5.90;1.00
702;DHT22;334;48.808;9.222;2022-12-10T01:52:35;6.00;1.00
702;DHT22;334;48.808;9.222;2022-12-10T01:53:41;6.00;1.00
702;DHT22;334;48.808;9.222;2022-12-10T01:54:45;6.00;1.00
702;DHT22;334;48.808;9.222;2022-12-10T01:55:50;5.90;1.00
702;DHT22;334;48.808;9.222;2022-12-10T01:57:00;5.90;1.00
702;DHT22;334;48.808;9.222;2022-12-10T01:58:04;5.90;1.00
702;DHT22;334;48.808;9.222;2022-12-10T01:59:06;5.90;1.00
702;DHT22;334;48.808;9.222;2022-12-10T02:00:10;5.90;1.00
702;DHT22;334;48.808;9.222;2022-12-10T02:02:46;5.90;1.00
702;DHT22;334;48.808;9.222;2022-12-10T02:05:35;5.90;1.00
702;DHT22;334;48.808;9.222;2022-12-10T02:08:09;5.90;1.00
702;DHT22;334;48.808;9.222;2022-12-10T02:11:20;6.00;1.00
702;DHT22;334;48.808;9.222;2022-12-10T02:14:23;6.00;1.00
702;DHT22;334;48.808;9.222;2022-12-10T02:15:31;5.90;1.00
702;DHT22;334;48.808;9.222;2022-12-10T02:16:43;5.90;1.00
702;DHT22;334;48.808;9.222;2022-12-10T02:17:50;5.90;1.00
702;DHT22;334;48.808;9.222;2022-12-10T02:19:01;5.90;1.00
702;DHT22;334;48.808;9.222;2022-12-10T02:20:10;5.90;1.00
702;DHT22;334;48.808;9.222;2022-12-10T02:21:26;5.90;1.00
702;DHT22;334;48.808;9.222;2022-12-10T02:22:36;5.90;1.00
702;DHT22;334;48.808;9.222;2022-12-10T02:23:44;5.90;1.00
702;DHT22;334;48.808;9.222;2022-12-10T02:24:49;6.00;1.00
702;DHT22;334;48.808;9.222;2022-12-10T02:25:54;5.90;1.00
702;DHT22;334;48.808;9.222;2022-12-10T02:27:10;5.80;1.00
702;DHT22;334;48.808;9.222;2022-12-10T02:29:37;5.90;1.00
702;DHT22;334;48.808;9.222;2022-12-10T02:30:41;5.90;1.00
702;DHT22;334;48.808;9.222;2022-12-10T02:33:05;5.90;1.00
702;DHT22;334;48.808;9.222;2022-12-10T02:34:10;5.90;1.00
702;DHT22;334;48.808;9.222;2022-12-10T02:35:20;5.80;1.00
702;DHT22;334;48.808;9.222;2022-12-10T02:36:28;5.80;1.00
702;DHT22;334;48.808;9.222;2022-12-10T02:37:36;5.90;1.00
702;DHT22;334;48.808;9.222;2022-12-10T02:38:41;5.90;1.00
702;DHT22;334;48.808;9.222;2022-12-10T02:39:48;5.90;1.00
702;DHT22;334;48.808;9.222;2022-12-10T02:40:56;5.90;1.00
702;DHT22;334;48.808;9.222;2022-12-10T02:42:01;5.90;1.00
702;DHT22;334;48.808;9.222;2022-12-10T02:43:05;5.90;1.00
702;DHT22;334;48.808;9.222;2022-12-10T02:44:11;5.90;1.00
702;DHT22;334;48.808;9.222;2022-12-10T02:45:13;5.90;1.00
702;DHT22;334;48.808;9.222;2022-12-10T02:46:15;5.90;1.00
702;DHT22;334;48.808;9.222;2022-12-10T02:47:20;5.90;1.00
702;DHT22;334;48.808;9.222;2022-12-10T02:48:22;5.90;1.00
702;DHT22;334;48.808;9.222;2022-12-10T02:49:26;5.90;1.00
702;DHT22;334;48.808;9.222;2022-12-10T02:50:29;5.90;1.00
702;DHT22;334;48.808;9.222;2022-12-10T02:51:31;5.90;1.00
702;DHT22;334;48.808;9.222;2022-12-10T02:52:33;5.90;1.00
702;DHT22;334;48.808;9.222;2022-12-10T02:53:44;5.90;1.00
702;DHT22;334;48.808;9.222;2022-12-10T02:54:48;5.90;1.00
702;DHT22;334;48.808;9.222;2022-12-10T02:56:14;5.80;1.00
702;DHT22;334;48.808;9.222;2022-12-10T02:59:10;5.90;1.00
702;DHT22;334;48.808;9.222;2022-12-10T03:00:13;5.80;1.00
702;DHT22;334;48.808;9.222;2022-12-10T03:04:03;5.80;1.00
702;DHT22;334;48.808;9.222;2022-12-10T03:06:38;5.80;1.00
702;DHT22;334;48.808;9.222;2022-12-10T03:07:57;5.80;1.00
702;DHT22;334;48.808;9.222;2022-12-10T03:09:16;5.80;1.00
702;DHT22;334;48.808;9.222;2022-12-10T03:12:06;5.70;1.00
702;DHT22;334;48.808;9.222;2022-12-10T03:13:13;5.70;1.00
702;DHT22;334;48.808;9.222;2022-12-10T03:14:22;5.70;1.00
702;DHT22;334;48.808;9.222;2022-12-10T03:15:27;5.70;1.00
702;DHT22;334;48.808;9.222;2022-12-10T03:16:34;5.70;1.00
702;DHT22;334;48.808;9.222;2022-12-10T03:17:38;5.70;1.00
702;DHT22;334;48.808;9.222;2022-12-10T03:18:44;5.70;1.00
702;DHT22;334;48.808;9.222;2022-12-10T03:19:50;5.70;1.00
702;DHT22;334;48.808;9.222;2022-12-10T03:20:53;5.70;1.00
702;DHT22;334;48.808;9.222;2022-12-10T03:21:58;5.70;1.00
702;DHT22;334;48.808;9.222;2022-12-10T03:23:02;5.70;1.00
702;DHT22;334;48.808;9.222;2022-12-10T03:24:07;5.70;1.00
702;DHT22;334;48.808;9.222;2022-12-10T03:25:13;5.70;1.00
702;DHT22;334;48.808;9.222;2022-12-10T03:26:18;5.70;1.00
702;DHT22;334;48.808;9.222;2022-12-10T03:27:22;5.80;1.00
702;DHT22;334;48.808;9.222;2022-12-10T03:28:25;5.80;1.00
702;DHT22;334;48.808;9.222;2022-12-10T03:29:32;5.80;1.00
702;DHT22;334;48.808;9.222;2022-12-10T03:30:36;5.80;1.00
702;DHT22;334;48.808;9.222;2022-12-10T03:31:41;5.80;1.00
702;DHT22;334;48.808;9.222;2022-12-10T03:32:44;5.80;1.00
702;DHT22;334;48.808;9.222;2022-12-10T03:33:47;5.80;1.00
702;DHT22;334;48.808;9.222;2022-12-10T03:34:52;5.80;1.00
702;DHT22;334;48.808;9.222;2022-12-10T03:35:55;5.80;1.00
702;DHT22;334;48.808;9.222;2022-12-10T03:36:59;5.80;1.00
702;DHT22;334;48.808;9.222;2022-12-10T03:38:02;5.80;1.00
702;DHT22;334;48.808;9.222;2022-12-10T03:39:04;5.90;1.00
702;DHT22;334;48.808;9.222;2022-12-10T03:40:07;5.80;1.00
702;DHT22;334;48.808;9.222;2022-12-10T03:41:10;5.80;1.00
702;DHT22;334;48.808;9.222;2022-12-10T03:42:12;5.80;1.00
702;DHT22;334;48.808;9.222;2022-12-10T03:43:14;5.80;1.00
702;DHT22;334;48.808;9.222;2022-12-10T03:44:34;5.80;1.00
702;DHT22;334;48.808;9.222;2022-12-10T03:45:36;5.80;1.00
702;DHT22;334;48.808;9.222;2022-12-10T03:46:37;5.80;1.00
702;DHT22;334;48.808;9.222;2022-12-10T03:47:40;5.80;1.00
702;DHT22;334;48.808;9.222;2022-12-10T03:48:43;5.80;1.00
702;DHT22;334;48.808;9.222;2022-12-10T03:49:44;5.80;1.00
702;DHT22;334;48.808;9.222;2022-12-10T03:50:46;5.80;1.00
702;DHT22;334;48.808;9.222;2022-12-10T03:51:48;5.80;1.00
702;DHT22;334;48.808;9.222;2022-12-10T03:52:50;5.80;1.00
702;DHT22;334;48.808;9.222;2022-12-10T03:53:52;5.80;1.00
702;DHT22;334;48.808;9.222;2022-12-10T03:54:53;5.80;1.00
702;DHT22;334;48.808;9.222;2022-12-10T03:55:55;5.70;1.00
702;DHT22;334;48.808;9.222;2022-12-10T03:56:57;5.70;1.00
702;DHT22;334;48.808;9.222;2022-12-10T03:57:59;5.60;1.00
702;DHT22;334;48.808;9.222;2022-12-10T03:59:01;5.60;1.00
702;DHT22;334;48.808;9.222;2022-12-10T04:00:05;5.60;1.00
702;DHT22;334;48.808;9.222;2022-12-10T04:01:07;5.60;1.00
702;DHT22;334;48.808;9.222;2022-12-10T04:02:09;5.50;1.00
702;DHT22;334;48.808;9.222;2022-12-10T04:03:12;5.50;1.00
702;DHT22;334;48.808;9.222;2022-12-10T04:06:30;5.50;1.00
702;DHT22;334;48.808;9.222;2022-12-10T04:07:34;5.50;1.00
702;DHT22;334;48.808;9.222;2022-12-10T04:08:36;5.40;1.00
702;DHT22;334;48.808;9.222;2022-12-10T04:09:37;5.40;1.00
702;DHT22;334;48.808;9.222;2022-12-10T04:10:39;5.40;1.00
702;DHT22;334;48.808;9.222;2022-12-10T04:11:42;5.40;1.00
702;DHT22;334;48.808;9.222;2022-12-10T04:12:44;5.40;1.00
702;DHT22;334;48.808;9.222;2022-12-10T04:14:05;5.40;1.00
702;DHT22;334;48.808;9.222;2022-12-10T04:15:26;5.40;1.00
702;DHT22;334;48.808;9.222;2022-12-10T04:16:46;5.40;1.00
702;DHT22;334;48.808;9.222;2022-12-10T04:17:50;5.40;1.00
702;DHT22;334;48.808;9.222;2022-12-10T04:19:04;5.40;1.00
702;DHT22;334;48.808;9.222;2022-12-10T04:20:06;5.40;1.00
702;DHT22;334;48.808;9.222;2022-12-10T04:21:31;5.40;1.00
702;DHT22;334;48.808;9.222;2022-12-10T04:22:56;5.40;1.00
702;DHT22;334;48.808;9.222;2022-12-10T04:24:19;5.40;1.00
702;DHT22;334;48.808;9.222;2022-12-10T04:25:39;5.40;1.00
702;DHT22;334;48.808;9.222;2022-12-10T04:27:07;5.40;1.00
702;DHT22;334;48.808;9.222;2022-12-10T04:28:10;5.40;1.00
702;DHT22;334;48.808;9.222;2022-12-10T04:29:14;5.50;1.00
702;DHT22;334;48.808;9.222;2022-12-10T04:30:16;5.30;1.00
702;DHT22;334;48.808;9.222;2022-12-10T04:31:19;5.30;1.00
702;DHT22;334;48.808;9.222;2022-12-10T04:32:22;5.20;1.00
702;DHT22;334;48.808;9.222;2022-12-10T04:33:26;5.20;1.00
702;DHT22;334;48.808;9.222;2022-12-10T04:34:30;5.20;1.00
702;DHT22;334;48.808;9.222;2022-12-10T04:35:31;5.20;1.00
702;DHT22;334;48.808;9.222;2022-12-10T04:36:33;5.20;1.00
702;DHT22;334;48.808;9.222;2022-12-10T04:37:35;5.20;1.00
702;DHT22;334;48.808;9.222;2022-12-10T04:38:37;5.20;1.00
702;DHT22;334;48.808;9.222;2022-12-10T04:39:40;5.20;1.00
702;DHT22;334;48.808;9.222;2022-12-10T04:40:42;5.30;1.00
702;DHT22;334;48.808;9.222;2022-12-10T04:41:46;5.30;1.00
702;DHT22;334;48.808;9.222;2022-12-10T04:42:48;5.30;1.00
702;DHT22;334;48.808;9.222;2022-12-10T04:43:50;5.30;1.00
702;DHT22;334;48.808;9.222;2022-12-10T04:44:53;5.20;1.00
702;DHT22;334;48.808;9.222;2022-12-10T04:45:58;5.30;1.00
702;DHT22;334;48.808;9.222;2022-12-10T04:47:00;5.30;1.00
702;DHT22;334;48.808;9.222;2022-12-10T04:48:03;5.30;1.00
702;DHT22;334;48.808;9.222;2022-12-10T04:49:07;5.30;1.00
702;DHT22;334;48.808;9.222;2022-12-10T04:50:09;5.30;1.00
702;DHT22;334;48.808;9.222;2022-12-10T04:51:13;5.30;1.00
702;DHT22;334;48.808;9.222;2022-12-10T04:52:16;5.30;1.00
702;DHT22;334;48.808;9.222;2022-12-10T04:53:22;5.30;1.00
702;DHT22;334;48.808;9.222;2022-12-10T04:54:24;5.30;1.00
702;DHT22;334;48.808;9.222;2022-12-10T04:55:26;5.30;1.00
702;DHT22;334;48.808;9.222;2022-12-10T04:56:28;5.30;1.00
702;DHT22;334;48.808;9.222;2022-12-10T04:57:32;5.30;1.00
702;DHT22;334;48.808;9.222;2022-12-10T04:58:34;5.30;1.00
702;DHT22;334;48.808;9.222;2022-12-10T04:59:37;5.30;1.00
702;DHT22;334;48.808;9.222;2022-12-10T05:00:39;5.20;1.00
702;DHT22;334;48.808;9.222;2022-12-10T05:01:41;5.20;1.00
702;DHT22;334;48.808;9.222;2022-12-10T05:02:44;5.20;1.00
702;DHT22;334;48.808;9.222;2022-12-10T05:03:49;5.30;1.00
702;DHT22;334;48.808;9.222;2022-12-10T05:04:51;5.20;1.00
702;DHT22;334;48.808;9.222;2022-12-10T05:05:53;5.30;1.00
702;DHT22;334;48.808;9.222;2022-12-10T05:06:55;5.30;1.00
702;DHT22;334;48.808;9.222;2022-12-10T05:07:57;5.30;1.00
702;DHT22;334;48.808;9.222;2022-12-10T05:08:59;5.30;1.00
702;DHT22;334;48.808;9.222;2022-12-10T05:10:00;5.20;1.00
702;DHT22;334;48.808;9.222;2022-12-10T05:11:08;5.30;1.00
702;DHT22;334;48.808;9.222;2022-12-10T05:12:10;5.30;1.00
702;DHT22;334;48.808;9.222;2022-12-10T05:13:12;5.30;1.00
702;DHT22;334;48.808;9.222;2022-12-10T05:14:15;5.30;1.00
702;DHT22;334;48.808;9.222;2022-12-10T05:15:17;5.30;1.00
702;DHT22;334;48.808;9.222;2022-12-10T05:16:20;5.30;1.00
702;DHT22;334;48.808;9.222;2022-12-10T05:17:22;5.40;1.00
702;DHT22;334;48.808;9.222;2022-12-10T05:18:24;5.40;1.00
702;DHT22;334;48.808;9.222;2022-12-10T05:19:28;5.40;1.00
702;DHT22;334;48.808;9.222;2022-12-10T05:20:29;5.30;1.00
702;DHT22;334;48.808;9.222;2022-12-10T05:21:31;5.40;1.00
702;DHT22;334;48.808;9.222;2022-12-10T05:22:52;5.40;1.00
702;DHT22;334;48.808;9.222;2022-12-10T05:24:13;5.40;1.00
702;DHT22;334;48.808;9.222;2022-12-10T05:25:15;5.40;1.00
702;DHT22;334;48.808;9.222;2022-12-10T05:26:22;5.40;1.00
702;DHT22;334;48.808;9.222;2022-12-10T05:27:31;5.40;1.00
702;DHT22;334;48.808;9.222;2022-12-10T05:28:38;5.40;1.00
702;DHT22;334;48.808;9.222;2022-12-10T05:29:41;5.30;1.00
702;DHT22;334;48.808;9.222;2022-12-10T05:30:43;5.30;1.00
702;DHT22;334;48.808;9.222;2022-12-10T05:31:45;5.30;1.00
702;DHT22;334;48.808;9.222;2022-12-10T05:32:47;5.30;1.00
702;DHT22;334;48.808;9.222;2022-12-10T05:33:49;5.30;1.00
702;DHT22;334;48.808;9.222;2022-12-10T05:34:51;5.30;1.00
702;DHT22;334;48.808;9.222;2022-12-10T05:35:58;5.30;1.00
702;DHT22;334;48.808;9.222;2022-12-10T05:37:02;5.20;1.00
702;DHT22;334;48.808;9.222;2022-12-10T05:38:04;5.20;1.00
702;DHT22;334;48.808;9.222;2022-12-10T05:39:07;5.20;1.00
702;DHT22;334;48.808;9.222;2022-12-10T05:40:09;5.20;1.00
702;DHT22;334;48.808;9.222;2022-12-10T05:41:14;5.20;1.00
702;DHT22;334;48.808;9.222;2022-12-10T05:42:19;5.20;1.00
702;DHT22;334;48.808;9.222;2022-12-10T05:43:21;5.20;1.00
702;DHT22;334;48.808;9.222;2022-12-10T05:44:25;5.20;1.00
702;DHT22;334;48.808;9.222;2022-12-10T05:45:27;5.20;1.00
702;DHT22;334;48.808;9.222;2022-12-10T05:46:30;5.20;1.00
702;DHT22;334;48.808;9.222;2022-12-10T05:47:32;5.20;1.00
702;DHT22;334;48.808;9.222;2022-12-10T05:48:35;5.30;1.00
702;DHT22;334;48.808;9.222;2022-12-10T05:49:37;5.30;1.00
702;DHT22;334;48.808;9.222;2022-12-10T05:50:39;5.30;1.00
702;DHT22;334;48.808;9.222;2022-12-10T05:51:41;5.30;1.00
702;DHT22;334;48.808;9.222;2022-12-10T05:52:43;5.30;1.00
702;DHT22;334;48.808;9.222;2022-12-10T05:53:45;5.30;1.00
702;DHT22;334;48.808;9.222;2022-12-10T05:54:48;5.40;1.00
702;DHT22;334;48.808;9.222;2022-12-10T05:55:49;5.30;1.00
702;DHT22;334;48.808;9.222;2022-12-10T05:56:51;5.30;1.00
702;DHT22;334;48.808;9.222;2022-12-10T05:57:55;5.20;1.00
702;DHT22;334;48.808;9.222;2022-12-10T05:58:59;5.30;1.00
702;DHT22;334;48.808;9.222;2022-12-10T06:00:01;5.30;1.00
702;DHT22;334;48.808;9.222;2022-12-10T06:01:07;5.30;1.00
702;DHT22;334;48.808;9.222;2022-12-10T06:02:09;5.30;1.00
702;DHT22;334;48.808;9.222;2022-12-10T06:03:11;5.30;1.00
702;DHT22;334;48.808;9.222;2022-12-10T06:04:13;5.30;1.00
702;DHT22;334;48.808;9.222;2022-12-10T06:05:17;5.40;1.00
702;DHT22;334;48.808;9.222;2022-12-10T06:06:22;5.40;1.00
702;DHT22;334;48.808;9.222;2022-12-10T06:07:25;5.40;1.00
702;DHT22;334;48.808;9.222;2022-12-10T06:08:32;5.40;1.00
702;DHT22;334;48.808;9.222;2022-12-10T06:09:34;5.40;1.00
702;DHT22;334;48.808;9.222;2022-12-10T06:10:36;5.40;1.00
702;DHT22;334;48.808;9.222;2022-12-10T06:11:38;5.40;1.00
702;DHT22;334;48.808;9.222;2022-12-10T06:12:41;5.30;1.00
702;DHT22;334;48.808;9.222;2022-12-10T06:13:44;5.30;1.00
702;DHT22;334;48.808;9.222;2022-12-10T06:14:46;5.30;1.00
702;DHT22;334;48.808;9.222;2022-12-10T06:15:48;5.40;1.00
702;DHT22;334;48.808;9.222;2022-12-10T06:16:50;5.40;1.00
702;DHT22;334;48.808;9.222;2022-12-10T06:17:51;5.40;1.00
702;DHT22;334;48.808;9.222;2022-12-10T06:18:53;5.40;1.00
702;DHT22;334;48.808;9.222;2022-12-10T06:19:55;5.40;1.00
702;DHT22;334;48.808;9.222;2022-12-10T06:20:57;5.40;1.00
702;DHT22;334;48.808;9.222;2022-12-10T06:21:59;5.40;1.00
702;DHT22;334;48.808;9.222;2022-12-10T06:23:02;5.40;1.00
702;DHT22;334;48.808;9.222;2022-12-10T06:24:04;5.40;1.00
702;DHT22;334;48.808;9.222;2022-12-10T06:25:06;5.40;1.00
702;DHT22;334;48.808;9.222;2022-12-10T06:26:17;5.40;1.00
702;DHT22;334;48.808;9.222;2022-12-10T06:27:21;5.40;1.00
702;DHT22;334;48.808;9.222;2022-12-10T06:28:24;5.40;1.00
702;DHT22;334;48.808;9.222;2022-12-10T06:29:26;5.40;1.00
702;DHT22;334;48.808;9.222;2022-12-10T06:30:28;5.40;1.00
702;DHT22;334;48.808;9.222;2022-12-10T06:31:30;5.40;1.00
702;DHT22;334;48.808;9.222;2022-12-10T06:32:32;5.40;1.00
702;DHT22;334;48.808;9.222;2022-12-10T06:33:35;5.40;1.00
702;DHT22;334;48.808;9.222;2022-12-10T06:34:38;5.40;1.00
702;DHT22;334;48.808;9.222;2022-12-10T06:35:43;5.40;1.00
702;DHT22;334;48.808;9.222;2022-12-10T06:36:45;5.40;1.00
702;DHT22;334;48.808;9.222;2022-12-10T06:37:48;5.40;1.00
702;DHT22;334;48.808;9.222;2022-12-10T06:38:55;5.40;1.00
702;DHT22;334;48.808;9.222;2022-12-10T06:39:57;5.40;1.00
702;DHT22;334;48.808;9.222;2022-12-10T06:40:59;5.40;1.00
702;DHT22;334;48.808;9.222;2022-12-10T06:42:01;5.40;1.00
702;DHT22;334;48.808;9.222;2022-12-10T06:43:06;5.40;1.00
702;DHT22;334;48.808;9.222;2022-12-10T06:44:08;5.40;1.00
702;DHT22;334;48.808;9.222;2022-12-10T06:45:10;5.10;1.00
702;DHT22;334;48.808;9.222;2022-12-10T06:46:14;5.30;1.00
702;DHT22;334;48.808;9.222;2022-12-10T06:47:17;5.30;1.00
702;DHT22;334;48.808;9.222;2022-12-10T06:48:19;5.30;1.00
702;DHT22;334;48.808;9.222;2022-12-10T06:49:21;5.30;1.00
702;DHT22;334;48.808;9.222;2022-12-10T06:50:23;5.30;1.00
702;DHT22;334;48.808;9.222;2022-12-10T06:51:26;5.30;1.00
702;DHT22;334;48.808;9.222;2022-12-10T06:52:27;5.30;1.00
702;DHT22;334;48.808;9.222;2022-12-10T06:53:32;5.40;1.00
702;DHT22;334;48.808;9.222;2022-12-10T06:54:34;5.30;1.00
702;DHT22;334;48.808;9.222;2022-12-10T06:55:37;5.40;1.00
702;DHT22;334;48.808;9.222;2022-12-10T06:56:40;5.30;1.00
702;DHT22;334;48.808;9.222;2022-12-10T06:57:41;5.30;1.00
702;DHT22;334;48.808;9.222;2022-12-10T06:58:44;5.30;1.00
702;DHT22;334;48.808;9.222;2022-12-10T06:59:46;5.30;1.00
702;DHT22;334;48.808;9.222;2022-12-10T07:00:48;5.30;1.00
702;DHT22;334;48.808;9.222;2022-12-10T07:01:49;5.30;1.00
702;DHT22;334;48.808;9.222;2022-12-10T07:02:51;5.30;1.00
702;DHT22;334;48.808;9.222;2022-12-10T07:03:55;5.30;1.00
702;DHT22;334;48.808;9.222;2022-12-10T07:04:57;5.20;1.00
702;DHT22;334;48.808;9.222;2022-12-10T07:05:59;5.20;1.00
702;DHT22;334;48.808;9.222;2022-12-10T07:07:03;5.20;1.00
702;DHT22;334;48.808;9.222;2022-12-10T07:08:10;5.20;1.00
702;DHT22;334;48.808;9.222;2022-12-10T07:09:12;5.20;1.00
702;DHT22;334;48.808;9.222;2022-12-10T07:10:14;5.20;1.00
702;DHT22;334;48.808;9.222;2022-12-10T07:11:17;5.20;1.00
702;DHT22;334;48.808;9.222;2022-12-10T07:12:19;5.10;1.00
702;DHT22;334;48.808;9.222;2022-12-10T07:13:22;5.10;1.00
702;DHT22;334;48.808;9.222;2022-12-10T07:14:31;5.10;1.00
702;DHT22;334;48.808;9.222;2022-12-10T07:15:32;5.10;1.00
702;DHT22;334;48.808;9.222;2022-12-10T07:16:34;5.00;1.00
702;DHT22;334;48.808;9.222;2022-12-10T07:17:36;5.00;1.00
702;DHT22;334;48.808;9.222;2022-12-10T07:18:38;5.00;1.00
702;DHT22;334;48.808;9.222;2022-12-10T07:19:39;5.00;1.00
702;DHT22;334;48.808;9.222;2022-12-10T07:20:41;5.00;1.00
702;DHT22;334;48.808;9.222;2022-12-10T07:21:43;5.00;1.00
702;DHT22;334;48.808;9.222;2022-12-10T07:22:47;5.00;1.00
702;DHT22;334;48.808;9.222;2022-12-10T07:23:49;5.00;1.00
702;DHT22;334;48.808;9.222;2022-12-10T07:24:51;5.00;1.00
702;DHT22;334;48.808;9.222;2022-12-10T07:25:54;5.00;1.00
702;DHT22;334;48.808;9.222;2022-12-10T07:26:57;5.00;1.00
702;DHT22;334;48.808;9.222;2022-12-10T07:28:00;5.00;1.00
702;DHT22;334;48.808;9.222;2022-12-10T07:29:04;5.00;1.00
702;DHT22;334;48.808;9.222;2022-12-10T07:30:06;5.20;1.00
702;DHT22;334;48.808;9.222;2022-12-10T07:31:09;5.00;1.00
702;DHT22;334;48.808;9.222;2022-12-10T07:32:11;5.00;1.00
702;DHT22;334;48.808;9.222;2022-12-10T07:33:13;5.00;1.00
702;DHT22;334;48.808;9.222;2022-12-10T07:34:15;5.00;1.00
702;DHT22;334;48.808;9.222;2022-12-10T07:35:17;5.00;1.00
702;DHT22;334;48.808;9.222;2022-12-10T07:36:21;5.00;1.00
702;DHT22;334;48.808;9.222;2022-12-10T07:37:26;5.00;1.00
702;DHT22;334;48.808;9.222;2022-12-10T07:38:28;4.90;1.00
702;DHT22;334;48.808;9.222;2022-12-10T07:39:29;4.90;1.00
702;DHT22;334;48.808;9.222;2022-12-10T07:40:32;4.90;1.00
702;DHT22;334;48.808;9.222;2022-12-10T07:41:35;4.90;1.00
702;DHT22;334;48.808;9.222;2022-12-10T07:42:37;4.90;1.00
702;DHT22;334;48.808;9.222;2022-12-10T07:43:41;4.90;1.00
702;DHT22;334;48.808;9.222;2022-12-10T07:44:43;4.90;1.00
702;DHT22;334;48.808;9.222;2022-12-10T07:45:49;4.90;1.00
702;DHT22;334;48.808;9.222;2022-12-10T07:46:53;4.90;1.00
702;DHT22;334;48.808;9.222;2022-12-10T07:47:56;4.90;1.00
702;DHT22;334;48.808;9.222;2022-12-10T07:49:01;4.90;1.00
702;DHT22;334;48.808;9.222;2022-12-10T07:50:05;4.90;1.00
702;DHT22;334;48.808;9.222;2022-12-10T07:51:08;4.90;1.00